Main page
METAR-TAF:

METAR-TAF

Airports :

Luton Airport

Luton, England

latitude: 51-52N, longitude: 000-22W, elevation: 160 m

Current weather observation

The report was made 27 minutes ago, at 16:50 UTC
Wind 4 kt from the North, varying between Northwest and Northeast
Temperature 11°C
Humidity 54%
Pressure 1032 hPa
Visibility 10 km or more
Broken clouds at a height of 4100 ft

METAR: EGGW 261650Z AUTO 36004KT 310V050 9999 BKN041 11/02 Q1032

Time: 17:17 (17:17 UTC)

Forecast

The report was made 6 hours and 18 minutes ago, at 10:59 UTC
Forecast valid from 26 at 12 UTC to 27 at 12 UTC
Wind 9 kt from the Northwest
Visibility 10 km or more
Few clouds at a height of 4000 ft
Probability 30%
from 27 at 04 UTC to 27 at 09 UTC
Visibility: 8000 m
Broken clouds at a height of 1400 ft

TAF: EGGW 261059Z 2612/2712 32009KT 9999 FEW040 PROB30 2704/2709 8000 BKN014

Weather observations and forecasts of more than 4000 airports (METAR and TAF reports).

The available stations are represented by yellow and red dots on the map.

Hover mouse over dot to see the name of the station.

Then click to see weather observations and forecasts.

To change the map : click on the green buttons with a black cross to zoom in, on the green button with a dash to zoom out, or on the green arrows for adjacent maps.


METAR-TAF: